Terminal Aerodrome Forecast
Issued by NWS Des Moines, IA

Home | Current Version | Previous Version | Text Only | Print | Product List | Glossary On
Versions: 1 2 3 4 5 6 7 8 9 10 11 12 13 14 15 16 17 18 19 20 21 22 23 24 25 26
000
FTUS43 KDMX 191734
TAFALO
TAF
KALO 191734Z 1918/2018 19021G27KT P6SM SKC
     FM200100 18012KT P6SM SCT150
     FM200300 20011KT P6SM VCTS SCT035CB BKN120
     FM200700 25008KT P6SM SCT050 BKN120=

USA.gov is the U.S. government's official web portal to all federal, state and local government web resources and services.